Time;durP1;ratioP1;P1;durP2;ratioP2;P2;SDS_P1;SDS_P2;PMS_P1;PMS_P2;Temp;Humidity;BMP_temperature;BMP_pressure;BME280_temperature;BME280_humidity;BME280_pressure;Samples;Min_cycle;Max_cycle;Signal;HPM_P1;HPM_P2
2022/05/18 00:01:39;;;;;;;18.63;12.10;;;15.40;99.90;;;;;;5077118;28;20032;-55
2022/05/18 00:04:05;;;;;;;20.10;10.23;;;15.40;99.90;;;;;;5076953;28;20039;-55
2022/05/18 00:06:31;;;;;;;23.98;11.52;;;15.50;99.90;;;;;;5077175;28;20078;-55
2022/05/18 00:08:57;;;;;;;18.80;11.65;;;15.50;99.90;;;;;;5058851;28;20036;-55
2022/05/18 00:11:23;;;;;;;17.80;10.13;;;15.50;99.90;;;;;;5077009;28;20447;-55
2022/05/18 00:13:53;;;;;;;17.00;10.88;;;15.50;99.90;;;;;;5076907;28;20108;-55
2022/05/18 00:16:21;;;;;;;18.02;11.00;;;15.50;99.90;;;;;;5076865;28;20398;-55
2022/05/18 00:18:47;;;;;;;21.77;11.77;;;15.50;99.90;;;;;;5076949;28;20024;-55
2022/05/18 00:21:13;;;;;;;18.33;10.70;;;15.40;99.90;;;;;;5077249;28;20032;-55
2022/05/18 00:23:39;;;;;;;18.13;11.35;;;15.40;99.90;;;;;;5076844;28;20639;-55
2022/05/18 00:26:06;;;;;;;26.65;14.20;;;15.40;99.90;;;;;;5076881;28;20232;-55
2022/05/18 00:28:33;;;;;;;25.58;13.15;;;15.40;99.90;;;;;;5076611;28;20025;-55
2022/05/18 00:30:59;;;;;;;17.35;10.88;;;15.40;99.90;;;;;;5076946;28;20438;-55
2022/05/18 00:33:26;;;;;;;19.05;11.60;;;15.40;99.90;;;;;;5076528;28;20037;-55
2022/05/18 00:35:53;;;;;;;13.73;10.50;;;15.40;99.90;;;;;;5076832;28;20024;-55
2022/05/18 00:38:19;;;;;;;18.58;11.05;;;15.40;99.90;;;;;;5076358;28;20496;-55
2022/05/18 00:40:47;;;;;;;17.20;10.27;;;15.50;99.90;;;;;;5076511;28;20099;-55
2022/05/18 00:43:19;;;;;;;15.10;9.10;;;15.40;99.90;;;;;;5076488;28;20036;-55
2022/05/18 00:45:46;;;;;;;12.88;8.68;;;15.50;99.90;;;;;;5076341;28;20059;-55
2022/05/18 00:48:12;;;;;;;19.00;9.02;;;15.50;99.90;;;;;;5076498;28;20120;-55
2022/05/18 00:50:40;;;;;;;11.88;7.93;;;15.50;99.90;;;;;;5076468;28;20028;-55
2022/05/18 00:53:18;;;;;;;12.20;7.03;;;15.50;99.90;;;;;;5076271;28;20024;-55
2022/05/18 00:55:51;;;;;;;11.52;6.82;;;15.50;99.90;;;;;;5076108;28;20602;-55
2022/05/18 00:58:19;;;;;;;7.03;5.40;;;15.60;99.90;;;;;;5076093;28;20035;-55
2022/05/18 01:00:47;;;;;;;11.75;5.10;;;15.60;99.90;;;;;;5076204;28;20025;-55
2022/05/18 01:03:23;;;;;;;7.35;4.90;;;15.60;99.90;;;;;;5075927;28;20446;-55
2022/05/18 01:05:55;;;;;;;8.68;5.57;;;15.60;99.90;;;;;;5076184;28;20025;-55
2022/05/18 01:08:34;;;;;;;6.85;5.20;;;15.50;99.90;;;;;;5076173;28;20389;-55
2022/05/18 01:11:00;;;;;;;10.10;5.15;;;15.50;99.90;;;;;;5075860;28;20044;-55
2022/05/18 01:13:26;;;;;;;8.70;4.47;;;15.40;99.90;;;;;;5075820;28;20474;-55
2022/05/18 01:15:52;;;;;;;5.63;3.50;;;15.40;99.90;;;;;;5075670;28;20034;-55
2022/05/18 01:18:19;;;;;;;5.60;4.43;;;15.40;99.90;;;;;;5075718;28;20470;-55
2022/05/18 01:20:46;;;;;;;7.60;3.97;;;15.40;99.90;;;;;;5075144;28;20024;-55
2022/05/18 01:23:46;;;;;;;6.50;3.40;;;15.40;99.90;;;;;;5075612;28;20038;-55
2022/05/18 01:26:40;;;;;;;8.35;4.00;;;15.40;99.90;;;;;;5075517;28;20033;-55
2022/05/18 01:29:06;;;;;;;6.20;3.70;;;15.40;99.90;;;;;;5075438;28;20029;-55
2022/05/18 01:31:43;;;;;;;9.43;3.55;;;15.40;99.90;;;;;;5075498;28;20052;-55
2022/05/18 01:34:10;;;;;;;10.52;4.15;;;15.40;99.90;;;;;;5075513;28;20068;-55
2022/05/18 01:36:36;;;;;;;7.72;3.97;;;15.40;99.90;;;;;;5075309;28;20094;-55
2022/05/18 01:39:03;;;;;;;4.78;3.80;;;15.40;99.90;;;;;;5075116;28;20024;-55
2022/05/18 01:41:34;;;;;;;7.50;3.72;;;15.40;99.90;;;;;;5075250;28;20288;-55
2022/05/18 01:44:01;;;;;;;5.20;4.30;;;15.40;99.90;;;;;;5075354;28;20029;-55
2022/05/18 01:46:31;;;;;;;7.53;5.03;;;15.40;99.90;;;;;;5075009;28;20024;-55
2022/05/18 01:48:57;;;;;;;6.72;4.90;;;15.40;99.90;;;;;;5075124;28;20052;-55
2022/05/18 01:51:37;;;;;;;5.95;5.35;;;15.50;99.90;;;;;;5075124;28;20035;-55
2022/05/18 01:54:03;;;;;;;7.90;5.88;;;15.50;99.90;;;;;;5075012;28;20036;-55
2022/05/18 01:56:30;;;;;;;11.60;6.55;;;15.50;99.90;;;;;;5074827;28;20036;-55
2022/05/18 01:58:56;;;;;;;8.05;6.32;;;15.50;99.90;;;;;;5074832;28;20082;-55
2022/05/18 02:01:22;;;;;;;9.05;6.75;;;15.50;99.90;;;;;;5075028;28;20036;-55
2022/05/18 02:03:49;;;;;;;12.02;8.02;;;15.50;99.90;;;;;;5074742;28;20032;-55
2022/05/18 02:06:16;;;;;;;13.32;8.10;;;15.50;99.90;;;;;;5075003;28;20039;-55
2022/05/18 02:08:42;;;;;;;13.05;9.15;;;15.50;99.90;;;;;;5074869;28;20024;-55
2022/05/18 02:11:13;;;;;;;14.93;8.80;;;15.40;99.90;;;;;;5074698;28;20035;-55
2022/05/18 02:13:39;;;;;;;;;;;15.40;99.90;;;;;;5075190;28;20390;-55
2022/05/18 02:16:05;;;;;;;18.83;9.75;;;15.40;99.90;;;;;;5074696;28;19916;-55
2022/05/18 02:18:31;;;;;;;18.30;10.50;;;15.40;99.90;;;;;;5074447;28;20028;-55
2022/05/18 02:20:57;;;;;;;14.30;9.85;;;15.50;99.90;;;;;;5074689;28;20043;-55
2022/05/18 02:23:23;;;;;;;15.75;10.25;;;15.50;99.90;;;;;;5074819;28;20025;-55
2022/05/18 02:25:49;;;;;;;18.73;10.20;;;15.50;99.90;;;;;;5074478;28;20028;-55
2022/05/18 02:28:15;;;;;;;14.27;9.82;;;15.50;99.90;;;;;;5074472;28;20056;-55
2022/05/18 02:30:41;;;;;;;13.13;9.95;;;15.50;99.90;;;;;;5074512;28;20056;-55
2022/05/18 02:33:07;;;;;;;15.20;10.07;;;15.50;99.90;;;;;;5074562;28;20481;-55
2022/05/18 02:35:33;;;;;;;16.50;10.80;;;15.50;99.90;;;;;;5074191;28;20072;-55
2022/05/18 02:37:59;;;;;;;16.38;11.55;;;15.50;99.90;;;;;;5074305;28;20033;-55
2022/05/18 02:40:25;;;;;;;15.90;11.57;;;15.60;99.90;;;;;;5074233;28;20417;-55
2022/05/18 02:42:51;;;;;;;16.63;11.73;;;15.60;99.90;;;;;;5074364;28;20028;-55
2022/05/18 02:45:17;;;;;;;15.18;10.52;;;15.60;99.90;;;;;;5074289;28;20034;-55
2022/05/18 02:47:43;;;;;;;20.73;10.98;;;15.70;99.90;;;;;;5074330;28;20036;-55
2022/05/18 02:50:09;;;;;;;14.98;10.48;;;15.50;99.90;;;;;;5074337;28;20033;-55
2022/05/18 02:52:37;;;;;;;14.80;11.02;;;15.60;99.90;;;;;;5074377;28;20082;-55
2022/05/18 02:57:48;;;;;;;14.65;10.82;;;15.60;99.90;;;;;;5073959;28;20028;-55
2022/05/18 03:00:15;;;;;;;16.63;11.02;;;15.60;99.90;;;;;;5074111;28;20039;-55
2022/05/18 03:02:41;;;;;;;16.23;10.52;;;15.60;99.90;;;;;;5074171;28;20028;-55
2022/05/18 03:05:08;;;;;;;18.13;10.57;;;15.60;99.90;;;;;;5074101;28;20429;-55
2022/05/18 03:07:34;;;;;;;17.92;10.65;;;15.60;99.90;;;;;;5074305;28;20028;-55
2022/05/18 03:10:00;;;;;;;14.02;10.38;;;15.60;99.90;;;;;;5074076;28;20382;-55
2022/05/18 03:12:26;;;;;;;15.05;10.63;;;15.70;99.90;;;;;;5073992;28;20382;-55
2022/05/18 03:14:52;;;;;;;12.93;9.85;;;15.70;99.90;;;;;;5074234;28;20078;-55
2022/05/18 03:17:18;;;;;;;13.63;9.52;;;15.70;99.90;;;;;;5073846;28;20460;-55
2022/05/18 03:19:44;;;;;;;14.13;9.32;;;15.70;99.90;;;;;;5074303;28;20056;-55
2022/05/18 03:24:54;;;;;;;12.15;9.77;;;15.80;99.90;;;;;;5074174;28;20052;-55
2022/05/18 03:27:20;;;;;;;17.88;9.77;;;15.70;99.90;;;;;;5074166;28;20382;-55
2022/05/18 03:29:46;;;;;;;11.98;9.25;;;15.70;99.90;;;;;;5073885;28;20047;-55
2022/05/18 03:32:12;;;;;;;13.40;10.00;;;15.80;99.90;;;;;;5073935;28;20032;-55
2022/05/18 03:34:39;;;;;;;15.98;9.93;;;15.90;99.90;;;;;;5073938;28;20059;-55
2022/05/18 03:37:05;;;;;;;17.33;10.52;;;15.90;99.90;;;;;;5073862;28;20036;-55
2022/05/18 03:39:31;;;;;;;16.38;9.02;;;15.80;99.90;;;;;;5073581;28;20028;-55
2022/05/18 03:41:57;;;;;;;19.23;10.85;;;15.80;99.90;;;;;;5073975;28;20050;-55
2022/05/18 03:44:23;;;;;;;20.35;10.95;;;15.80;99.90;;;;;;5074693;28;20090;-55
2022/05/18 03:46:49;;;;;;;13.45;10.20;;;15.80;99.90;;;;;;5077491;28;20044;-55
2022/05/18 03:49:15;;;;;;;17.13;9.70;;;15.90;99.90;;;;;;5077524;28;20036;-55
2022/05/18 03:51:41;;;;;;;14.13;9.45;;;15.90;99.90;;;;;;5077473;28;20421;-55
2022/05/18 03:54:07;;;;;;;15.30;9.80;;;15.80;99.90;;;;;;5077507;28;20107;-55
2022/05/18 03:56:33;;;;;;;14.45;9.82;;;15.80;99.90;;;;;;5077369;28;20035;-55
2022/05/18 03:59:00;;;;;;;16.70;10.32;;;15.90;99.90;;;;;;5077188;28;20100;-55
2022/05/18 04:01:26;;;;;;;13.25;9.90;;;15.90;99.90;;;;;;5077304;28;20038;-55
2022/05/18 04:03:53;;;;;;;14.15;9.77;;;15.90;99.90;;;;;;5077235;28;20523;-55
2022/05/18 04:06:19;;;;;;;14.32;9.63;;;15.90;99.90;;;;;;5077322;28;20029;-55
2022/05/18 04:08:46;;;;;;;16.15;10.38;;;15.90;99.90;;;;;;5076917;28;20079;-55
2022/05/18 04:11:13;;;;;;;19.73;11.05;;;15.90;99.90;;;;;;5077077;28;20470;-55
2022/05/18 04:13:39;;;;;;;14.88;10.18;;;15.90;99.90;;;;;;5077134;28;20025;-55
2022/05/18 04:16:05;;;;;;;13.18;9.80;;;15.90;99.90;;;;;;5076833;28;20052;-55
2022/05/18 04:18:32;;;;;;;23.02;12.82;;;15.90;99.90;;;;;;5077068;28;20035;-55
2022/05/18 04:20:59;;;;;;;22.35;12.85;;;15.90;99.90;;;;;;5077045;28;20035;-55
2022/05/18 04:23:26;;;;;;;25.17;12.43;;;15.70;99.90;;;;;;5076884;28;20040;-55
2022/05/18 04:25:52;;;;;;;25.13;13.57;;;15.80;99.90;;;;;;5076883;28;20088;-55
2022/05/18 04:28:19;;;;;;;23.33;13.40;;;15.80;99.90;;;;;;5076998;28;20532;-55
2022/05/18 04:30:47;;;;;;;25.92;14.88;;;15.90;99.90;;;;;;5076483;28;20459;-55
2022/05/18 04:33:18;;;;;;;20.80;13.85;;;15.80;99.90;;;;;;5076881;28;20324;-55
2022/05/18 04:35:44;;;;;;;;;;;15.90;99.90;;;;;;5077249;28;20051;-55
2022/05/18 04:38:10;;;;;;;24.20;13.65;;;15.90;99.90;;;;;;5076606;28;19920;-55
2022/05/18 04:40:37;;;;;;;28.65;14.10;;;15.90;99.90;;;;;;5076303;28;20025;-55
2022/05/18 04:43:03;;;;;;;21.60;13.48;;;15.90;99.90;;;;;;5076484;28;20036;-55
2022/05/18 04:45:29;;;;;;;23.63;13.05;;;15.90;99.90;;;;;;5076623;28;20031;-55
2022/05/18 04:47:55;;;;;;;17.95;11.95;;;15.90;99.90;;;;;;5076482;28;20029;-55
2022/05/18 04:50:21;;;;;;;26.77;15.60;;;15.90;99.90;;;;;;5076184;28;20040;-55
2022/05/18 04:52:48;;;;;;;17.30;10.52;;;15.80;99.90;;;;;;5076313;28;20030;-55
2022/05/18 04:55:15;;;;;;;18.23;11.85;;;15.80;99.90;;;;;;5076001;28;20056;-55
2022/05/18 04:57:41;;;;;;;25.67;13.05;;;15.80;99.90;;;;;;5075206;28;20383;-55
2022/05/18 05:00:11;;;;;;;18.38;13.32;;;15.80;99.90;;;;;;5076305;28;20032;-55
2022/05/18 05:02:39;;;;;;;25.15;15.90;;;15.80;99.90;;;;;;5058068;28;20457;-55
2022/05/18 05:05:08;;;;;;;20.27;12.77;;;15.80;99.90;;;;;;5075975;28;20112;-55
2022/05/18 05:07:34;;;;;;;24.13;15.15;;;15.80;99.90;;;;;;5075928;28;20108;-55
2022/05/18 05:10:00;;;;;;;20.58;12.95;;;15.80;99.90;;;;;;5075963;28;20075;-55
2022/05/18 05:12:26;;;;;;;23.08;14.30;;;15.80;99.90;;;;;;5075419;28;20398;-55
2022/05/18 05:14:53;;;;;;;12.98;10.13;;;15.70;99.90;;;;;;5075791;28;20028;-55
2022/05/18 05:17:19;;;;;;;22.17;11.10;;;15.60;99.90;;;;;;5074891;28;20136;-55
2022/05/18 05:19:45;;;;;;;13.60;11.73;;;15.70;99.90;;;;;;5081536;28;20093;-55
2022/05/18 05:22:11;;;;;;;16.60;8.10;;;15.70;99.90;;;;;;5073272;28;20024;-55
2022/05/18 05:24:36;;;;;;;17.98;8.38;;;15.60;99.90;;;;;;5070378;28;20390;-55
2022/05/18 05:27:03;;;;;;;15.23;7.53;;;15.60;99.90;;;;;;5060512;28;20033;-55
2022/05/18 05:29:30;;;;;;;12.18;8.82;;;15.70;99.90;;;;;;5070831;28;20083;-55
2022/05/18 05:31:56;;;;;;;18.58;10.57;;;15.70;99.90;;;;;;5085113;28;20028;-55
2022/05/18 05:34:22;;;;;;;16.65;8.60;;;15.50;99.90;;;;;;5075183;28;20090;-55
2022/05/18 05:36:48;;;;;;;14.75;7.85;;;15.40;99.90;;;;;;5074680;28;20148;-55
2022/05/18 05:39:14;;;;;;;18.75;8.05;;;15.30;99.90;;;;;;5075267;28;20429;-55
2022/05/18 05:41:42;;;;;;;17.70;9.27;;;15.40;99.90;;;;;;5075066;28;20362;-55
2022/05/18 05:44:10;;;;;;;10.32;6.25;;;15.40;99.90;;;;;;5075208;28;20021;-55
2022/05/18 05:46:36;;;;;;;20.48;6.72;;;15.40;99.90;;;;;;5074876;28;20020;-55
2022/05/18 05:49:02;;;;;;;11.77;5.93;;;15.40;99.90;;;;;;5077371;28;20036;-55
2022/05/18 05:51:28;;;;;;;11.75;5.85;;;15.50;99.90;;;;;;5073066;28;20070;-55
2022/05/18 05:53:54;;;;;;;13.98;5.45;;;15.50;99.90;;;;;;5078426;28;20125;-55
2022/05/18 05:56:21;;;;;;;18.15;7.70;;;15.50;99.90;;;;;;5072373;28;20241;-55
2022/05/18 05:58:50;;;;;;;9.98;4.78;;;15.50;99.90;;;;;;5074795;28;20016;-55
2022/05/18 06:01:18;;;;;;;14.90;6.10;;;15.60;99.90;;;;;;5078855;28;20032;-55
2022/05/18 06:03:45;;;;;;;14.13;8.70;;;15.40;99.90;;;;;;5087069;28;20042;-55
2022/05/18 06:06:11;;;;;;;9.77;5.15;;;15.40;99.90;;;;;;5078292;28;20389;-55
2022/05/18 06:08:38;;;;;;;12.68;7.30;;;15.20;99.90;;;;;;5069040;28;20051;-55
2022/05/18 06:11:06;;;;;;;15.38;6.15;;;15.30;99.90;;;;;;5059730;28;20032;-55
2022/05/18 06:13:32;;;;;;;18.17;8.95;;;15.40;99.90;;;;;;5078052;28;20115;-55
2022/05/18 06:15:59;;;;;;;11.30;6.15;;;15.40;99.90;;;;;;5072574;28;20056;-55
2022/05/18 06:18:26;;;;;;;13.40;9.43;;;15.40;99.90;;;;;;5066214;28;20090;-55
2022/05/18 06:20:52;;;;;;;14.55;11.35;;;15.40;99.90;;;;;;5068569;28;20017;-55
2022/05/18 06:23:19;;;;;;;19.38;13.50;;;15.50;99.90;;;;;;5055140;28;20035;-55
2022/05/18 06:25:46;;;;;;;12.48;7.13;;;15.40;99.90;;;;;;5069752;28;20425;-55
2022/05/18 06:28:12;;;;;;;8.48;6.55;;;15.40;99.90;;;;;;5064317;28;20116;-55
2022/05/18 06:30:38;;;;;;;12.98;6.93;;;15.40;99.90;;;;;;5071126;28;20036;-55
2022/05/18 06:33:05;;;;;;;12.65;6.47;;;15.60;99.90;;;;;;5066974;28;20128;-55
2022/05/18 06:35:31;;;;;;;10.35;6.53;;;15.60;99.90;;;;;;5068502;28;20496;-55
2022/05/18 06:37:57;;;;;;;9.70;6.30;;;15.70;99.90;;;;;;5060276;28;20475;-55
2022/05/18 06:41:21;;;;;;;12.07;5.97;;;15.70;99.90;;;;;;5055215;28;20050;-55
2022/05/18 06:43:10;;;;;;;17.67;10.48;;;15.80;99.90;;;;;;5059536;28;20031;-55
2022/05/18 06:45:36;;;;;;;12.73;6.80;;;15.90;99.90;;;;;;5059761;28;20470;-55
2022/05/18 06:48:02;;;;;;;13.70;6.57;;;15.80;99.90;;;;;;5072451;28;20037;-55
2022/05/18 06:50:28;;;;;;;13.38;6.90;;;15.90;99.90;;;;;;5063520;28;20036;-55
2022/05/18 06:52:54;;;;;;;8.07;5.28;;;16.00;99.90;;;;;;5062060;28;20360;-55
2022/05/18 06:55:20;;;;;;;11.02;6.10;;;16.10;99.90;;;;;;5059870;28;20036;-55
2022/05/18 06:57:47;;;;;;;11.25;5.97;;;16.10;99.90;;;;;;5066413;28;20118;-55
2022/05/18 07:00:15;;;;;;;14.57;6.10;;;16.20;99.90;;;;;;5072087;28;20032;-55
2022/05/18 07:02:43;;;;;;;12.10;6.80;;;16.30;99.90;;;;;;5063660;28;20060;-55
2022/05/18 07:05:09;;;;;;;12.88;6.55;;;16.40;99.90;;;;;;5070265;28;20029;-55
2022/05/18 07:07:37;;;;;;;8.48;5.90;;;16.40;99.90;;;;;;5062822;28;20028;-55
2022/05/18 07:10:04;;;;;;;8.70;5.10;;;16.60;99.90;;;;;;5066516;28;20029;-55
2022/05/18 07:12:30;;;;;;;9.68;5.03;;;16.70;99.90;;;;;;5065911;28;20306;-56
2022/05/18 07:14:58;;;;;;;6.57;4.93;;;16.70;99.90;;;;;;5063659;28;20075;-55
2022/05/18 07:17:24;;;;;;;10.90;5.45;;;16.70;99.90;;;;;;5060350;28;20025;-55
2022/05/18 07:19:50;;;;;;;8.75;5.35;;;16.90;99.90;;;;;;5068351;28;20424;-55
2022/05/18 07:22:15;;;;;;;11.55;6.20;;;16.90;99.90;;;;;;5069119;28;20023;-55
2022/05/18 07:24:41;;;;;;;7.32;5.80;;;16.90;99.90;;;;;;5071853;28;20020;-56
2022/05/18 07:27:07;;;;;;;8.10;4.95;;;17.10;99.90;;;;;;5070651;28;20079;-55
2022/05/18 07:29:34;;;;;;;8.15;5.28;;;17.10;99.90;;;;;;5073865;28;20569;-56
2022/05/18 07:32:09;;;;;;;10.52;5.50;;;17.00;99.90;;;;;;5065908;28;20505;-55
2022/05/18 07:34:39;;;;;;;8.68;4.93;;;17.00;99.90;;;;;;5017956;28;1258954;-56
2022/05/18 07:37:06;;;;;;;7.85;5.25;;;17.00;99.90;;;;;;5067657;28;20028;-56
2022/05/18 07:39:32;;;;;;;8.75;4.97;;;17.10;99.90;;;;;;5080710;28;20028;-56
2022/05/18 07:41:59;;;;;;;19.27;9.63;;;17.10;99.90;;;;;;5067685;28;20052;-56
2022/05/18 07:44:26;;;;;;;17.55;10.07;;;17.10;99.90;;;;;;5067768;28;20051;-56
2022/05/18 07:46:52;;;;;;;12.25;5.40;;;16.90;99.90;;;;;;5069712;28;20111;-56
2022/05/18 07:49:19;;;;;;;8.57;5.13;;;17.00;99.90;;;;;;5067427;28;20033;-56
2022/05/18 07:51:45;;;;;;;9.02;5.80;;;17.10;99.90;;;;;;5062394;28;20029;-56
2022/05/18 07:54:14;;;;;;;8.93;5.40;;;17.00;99.90;;;;;;5064563;28;20048;-56
2022/05/18 07:56:41;;;;;;;8.05;4.72;;;17.10;99.90;;;;;;5068812;28;20028;-56
2022/05/18 07:59:08;;;;;;;12.48;5.07;;;17.20;99.90;;;;;;5073594;28;20697;-56
2022/05/18 08:01:36;;;;;;;10.20;4.72;;;17.50;99.90;;;;;;5076429;28;20024;-56
2022/05/18 08:04:05;;;;;;;13.05;5.65;;;17.70;99.90;;;;;;5070427;28;20048;-56
2022/05/18 08:06:32;;;;;;;13.80;5.35;;;17.70;99.90;;;;;;5068632;28;20079;-56
2022/05/18 08:08:58;;;;;;;29.35;6.45;;;18.00;99.90;;;;;;5095269;28;20116;-56
2022/05/18 08:16:53;;;;;;;7.90;4.50;;;19.20;99.90;;;;;;5086829;28;20028;-56
2022/05/18 08:19:19;;;;;;;10.70;4.20;;;19.50;99.90;;;;;;5095042;28;20027;-56
2022/05/18 08:21:47;;;;;;;10.73;4.20;;;19.70;99.90;;;;;;5077473;28;20114;-56
2022/05/18 08:24:13;;;;;;;9.48;4.90;;;19.80;99.90;;;;;;5081049;28;20032;-56
2022/05/18 08:26:41;;;;;;;12.20;5.45;;;19.70;99.90;;;;;;5071213;28;20020;-56
2022/05/18 08:29:08;;;;;;;17.35;5.63;;;19.80;99.90;;;;;;5063312;28;20398;-56
2022/05/18 08:31:34;;;;;;;7.10;4.07;;;19.80;99.90;;;;;;5069828;28;20059;-56
2022/05/18 08:34:00;;;;;;;8.20;3.85;;;20.10;99.90;;;;;;5069429;28;20123;-56
2022/05/18 08:36:27;;;;;;;10.70;4.07;;;19.90;99.90;;;;;;5068583;28;20112;-56
2022/05/18 08:38:55;;;;;;;13.07;4.15;;;19.80;99.30;;;;;;5073782;28;20025;-56
2022/05/18 08:41:36;;;;;;;7.40;3.45;;;20.20;99.90;;;;;;5070684;28;20028;-56
2022/05/18 08:44:07;;;;;;;8.10;3.75;;;20.20;99.90;;;;;;5074313;28;20024;-56
2022/05/18 08:47:06;;;;;;;8.85;3.97;;;20.30;99.90;;;;;;5066483;28;20033;-56
2022/05/18 08:50:04;;;;;;;5.13;3.03;;;20.60;99.90;;;;;;5073518;28;20024;-56
2022/05/18 08:52:33;;;;;;;10.57;3.72;;;20.50;92.60;;;;;;5054618;28;20462;-56
2022/05/18 08:55:44;;;;;;;11.15;4.18;;;20.50;99.40;;;;;;5074866;28;20028;-56
2022/05/18 08:58:39;;;;;;;17.23;4.80;;;20.40;94.00;;;;;;5046677;28;20037;-56
2022/05/18 09:01:20;;;;;;;6.50;3.75;;;20.50;97.30;;;;;;5072197;28;20475;-56
2022/05/18 09:04:00;;;;;;;16.40;3.88;;;20.70;96.30;;;;;;5075993;28;20062;-56
2022/05/18 09:06:37;;;;;;;6.55;4.03;;;20.50;95.30;;;;;;5075617;28;20465;-56
2022/05/18 09:11:51;;;;;;;7.65;3.97;;;20.60;95.00;;;;;;5070816;28;20059;-56
2022/05/18 09:14:20;;;;;;;8.38;3.78;;;20.40;92.70;;;;;;5075976;28;20588;-56
2022/05/18 09:17:04;;;;;;;7.63;3.53;;;20.50;96.60;;;;;;5075806;28;20029;-56
2022/05/18 09:19:49;;;;;;;7.07;3.00;;;20.50;91.50;;;;;;5066815;28;20028;-56
2022/05/18 09:22:46;;;;;;;9.32;3.63;;;20.60;93.10;;;;;;5058095;28;20024;-56
2022/05/18 09:25:15;;;;;;;10.10;2.90;;;20.90;91.30;;;;;;5055802;28;20425;-55
2022/05/18 09:27:54;;;;;;;10.30;4.63;;;21.10;87.10;;;;;;5066184;28;20044;-55
2022/05/18 09:30:37;;;;;;;6.50;3.30;;;21.30;88.40;;;;;;5061157;28;20036;-55
2022/05/18 09:33:15;;;;;;;11.60;3.15;;;21.40;90.30;;;;;;5066701;28;20029;-56
2022/05/18 09:36:08;;;;;;;17.85;3.35;;;21.30;95.10;;;;;;5075744;28;20046;-56
2022/05/18 09:39:01;;;;;;;9.65;3.30;;;20.90;88.20;;;;;;5074035;28;20082;-56
2022/05/18 09:41:37;;;;;;;15.57;5.00;;;20.90;97.70;;;;;;5072988;28;20031;-56
2022/05/18 09:44:07;;;;;;;4.18;2.63;;;20.70;91.60;;;;;;5074902;28;20029;-56
2022/05/18 09:46:35;;;;;;;9.70;3.08;;;21.20;86.30;;;;;;5072242;28;20020;-55
2022/05/18 09:49:21;;;;;;;15.05;4.88;;;21.00;91.40;;;;;;5068267;28;20031;-55
2022/05/18 09:51:47;;;;;;;10.52;3.42;;;21.40;80.10;;;;;;5071709;28;20028;-55
2022/05/18 09:54:16;;;;;;;9.02;2.70;;;21.70;93.60;;;;;;5072082;28;20036;-56
2022/05/18 09:56:49;;;;;;;7.82;3.35;;;22.00;75.40;;;;;;5045045;28;20356;-55
2022/05/18 09:59:21;;;;;;;20.75;4.70;;;21.80;69.10;;;;;;5079293;28;20143;-55
2022/05/18 10:07:34;;;;;;;9.27;3.10;;;21.50;90.90;;;;;;5067755;28;20405;-56
2022/05/18 10:10:34;;;;;;;5.57;2.72;;;21.80;68.60;;;;;;5075039;28;20041;-55
2022/05/18 10:13:07;;;;;;;13.65;4.53;;;22.60;68.10;;;;;;5012561;28;20049;-55
2022/05/18 10:15:41;;;;;;;12.68;2.92;;;22.80;62.10;;;;;;5067041;28;20063;-55
2022/05/18 10:18:22;;;;;;;15.48;3.55;;;22.90;82.80;;;;;;5065292;28;20078;-55
2022/05/18 10:21:18;;;;;;;8.88;3.10;;;23.50;59.80;;;;;;5072810;28;20028;-55
2022/05/18 10:23:51;;;;;;;3.60;2.05;;;22.80;58.90;;;;;;5042074;28;20036;-56
2022/05/18 10:26:38;;;;;;;8.85;2.33;;;23.30;55.90;;;;;;5094504;28;20377;-55
2022/05/18 10:29:07;;;;;;;6.07;2.67;;;23.50;56.80;;;;;;5084653;28;20031;-55
2022/05/18 10:31:42;;;;;;;10.73;2.53;;;24.20;52.60;;;;;;5074490;28;20028;-55
2022/05/18 10:34:28;;;;;;;8.27;3.45;;;24.70;58.30;;;;;;5060930;28;20060;-56
2022/05/18 10:36:58;;;;;;;4.75;1.50;;;24.80;51.70;;;;;;5078372;28;20032;-55
2022/05/18 10:39:40;;;;;;;14.80;2.97;;;24.10;49.40;;;;;;5074196;28;20029;-55
2022/05/18 10:42:50;;;;;;;5.32;2.33;;;23.60;50.90;;;;;;5074528;28;20375;-56
2022/05/18 10:45:25;;;;;;;11.60;2.00;;;23.30;51.10;;;;;;5041502;28;20040;-55
2022/05/18 10:48:03;;;;;;;9.35;2.38;;;23.30;53.50;;;;;;5067423;28;20273;-55
2022/05/18 10:50:37;;;;;;;6.30;1.60;;;23.70;55.60;;;;;;5063035;28;20104;-55
2022/05/18 10:53:15;;;;;;;5.72;1.75;;;24.20;51.40;;;;;;5073765;28;20036;-55
2022/05/18 10:55:56;;;;;;;4.53;1.90;;;24.50;49.40;;;;;;5066827;28;20033;-55
2022/05/18 10:58:30;;;;;;;13.43;2.15;;;24.80;47.40;;;;;;5071862;28;20037;-55
2022/05/18 11:01:44;;;;;;;5.97;1.88;;;25.10;47.50;;;;;;5074004;28;20405;-55
2022/05/18 11:04:28;;;;;;;8.68;2.72;;;26.00;49.70;;;;;;5053398;28;20033;-56
2022/05/18 11:06:54;;;;;;;31.40;6.03;;;25.50;44.60;;;;;;5071649;28;20040;-56
2022/05/18 11:09:32;;;;;;;12.25;2.25;;;24.80;43.40;;;;;;5053668;28;20041;-55
2022/05/18 11:12:09;;;;;;;10.27;3.33;;;23.60;45.00;;;;;;5055856;28;20032;-55
2022/05/18 11:14:47;;;;;;;100.90;24.35;;;24.50;48.20;;;;;;5060830;28;20041;-55
2022/05/18 11:17:34;;;;;;;10.88;2.05;;;24.60;46.00;;;;;;5059940;28;20037;-55
2022/05/18 11:20:37;;;;;;;146.10;35.20;;;24.60;44.60;;;;;;5060746;28;20028;-55
2022/05/18 11:23:24;;;;;;;12.25;2.22;;;25.10;46.60;;;;;;5068382;28;20025;-55
2022/05/18 11:26:24;;;;;;;4.97;1.10;;;24.40;43.90;;;;;;5071644;28;20094;-55
2022/05/18 11:29:02;;;;;;;;;;;25.50;47.40;;;;;;5065689;28;20303;-55
2022/05/18 11:31:52;;;;;;;8.43;2.08;;;25.90;44.50;;;;;;5067757;28;19916;-56
2022/05/18 11:34:40;;;;;;;7.53;2.33;;;26.30;44.00;;;;;;5068749;28;20182;-56
2022/05/18 11:37:12;;;;;;;7.97;1.85;;;26.60;41.60;;;;;;5061306;28;20033;-55
2022/05/18 11:40:13;;;;;;;16.90;4.00;;;26.30;42.40;;;;;;5065738;28;20029;-55
2022/05/18 11:42:55;;;;;;;8.98;2.03;;;26.30;43.40;;;;;;5093320;28;20046;-55
2022/05/18 11:45:47;;;;;;;16.85;2.65;;;26.10;44.00;;;;;;5091845;28;20543;-56
2022/05/18 11:48:33;;;;;;;12.30;2.58;;;26.20;44.50;;;;;;5063252;28;20513;-56
2022/05/18 11:51:33;;;;;;;15.95;2.38;;;25.20;41.40;;;;;;5073024;28;20533;-55
2022/05/18 11:54:20;;;;;;;10.48;2.28;;;25.10;41.10;;;;;;5061813;28;20036;-56
2022/05/18 11:57:02;;;;;;;6.32;2.03;;;24.50;42.40;;;;;;5067729;28;20067;-56
2022/05/18 12:00:08;;;;;;;9.52;2.00;;;24.80;41.20;;;;;;5070617;28;20066;-55
2022/05/18 12:02:48;;;;;;;8.63;1.80;;;24.80;42.10;;;;;;5065693;28;20025;-56
2022/05/18 12:05:44;;;;;;;5.22;1.85;;;25.20;41.20;;;;;;5066456;28;20032;-55
2022/05/18 12:08:38;;;;;;;8.40;2.30;;;25.10;39.30;;;;;;5065195;28;20079;-55
2022/05/18 12:11:15;;;;;;;9.77;1.98;;;25.30;40.90;;;;;;5093875;28;20024;-55
2022/05/18 12:14:09;;;;;;;6.28;2.25;;;25.60;38.50;;;;;;5097156;28;20039;-55
2022/05/18 12:16:39;;;;;;;5.22;2.20;;;26.00;46.70;;;;;;5097055;28;20032;-55
2022/05/18 12:19:14;;;;;;;3.60;1.30;;;25.50;40.10;;;;;;5095527;28;20105;-56
2022/05/18 12:21:50;;;;;;;13.27;2.50;;;25.70;39.40;;;;;;5065691;28;20024;-55
2022/05/18 12:24:17;;;;;;;11.15;2.20;;;25.30;39.10;;;;;;5063650;28;20028;-55
2022/05/18 12:26:45;;;;;;;10.27;1.80;;;25.60;38.60;;;;;;5070003;28;20032;-55
2022/05/18 12:29:16;;;;;;;6.25;1.50;;;25.70;39.00;;;;;;5074574;28;20032;-55
2022/05/18 12:31:43;;;;;;;3.33;1.38;;;26.30;38.20;;;;;;5088142;28;20448;-56
2022/05/18 12:34:12;;;;;;;5.93;1.58;;;24.90;36.90;;;;;;5084771;28;20036;-56
2022/05/18 12:36:44;;;;;;;10.32;2.83;;;24.30;39.90;;;;;;5067156;28;20044;-55
2022/05/18 12:39:17;;;;;;;5.18;2.38;;;24.40;41.90;;;;;;5054214;28;20025;-56
2022/05/18 12:41:48;;;;;;;12.10;2.00;;;24.50;42.00;;;;;;5075604;28;20024;-55
2022/05/18 12:44:37;;;;;;;5.70;1.40;;;24.20;41.40;;;;;;5090202;28;20081;-56
2022/05/18 12:47:17;;;;;;;5.80;1.52;;;23.40;42.50;;;;;;5063990;28;20037;-55
2022/05/18 12:49:44;;;;;;;5.03;1.52;;;23.20;43.40;;;;;;5056262;28;20367;-55
2022/05/18 12:52:34;;;;;;;6.38;1.75;;;23.10;42.70;;;;;;5090726;28;20032;-55
2022/05/18 12:55:06;;;;;;;8.00;2.47;;;23.50;44.50;;;;;;5084040;28;20421;-55
2022/05/18 12:57:41;;;;;;;6.88;1.38;;;23.60;43.20;;;;;;5067433;28;20107;-55
2022/05/18 13:00:27;;;;;;;10.25;2.92;;;24.20;42.50;;;;;;5064594;28;20059;-55
2022/05/18 13:03:00;;;;;;;5.78;1.73;;;24.20;43.20;;;;;;5062081;28;20029;-55
2022/05/18 13:05:26;;;;;;;11.15;2.65;;;23.80;41.20;;;;;;5072455;28;20067;-55
2022/05/18 13:08:04;;;;;;;12.60;2.17;;;23.50;42.10;;;;;;5067328;28;20391;-55
2022/05/18 13:10:37;;;;;;;17.38;2.45;;;23.20;41.20;;;;;;5054304;28;20040;-55
2022/05/18 13:13:19;;;;;;;11.40;2.13;;;23.20;43.70;;;;;;5065948;28;20055;-55
2022/05/18 13:15:58;;;;;;;7.93;1.75;;;23.30;42.60;;;;;;5065593;28;20075;-55
2022/05/18 13:18:37;;;;;;;6.13;1.38;;;23.70;41.60;;;;;;5060198;28;20066;-56
2022/05/18 13:21:09;;;;;;;9.48;2.28;;;23.30;40.50;;;;;;5071125;28;20055;-55